createdAt,value
2022-12-27T00:01:21.722Z,101882.94
2022-12-27T00:06:27.329Z,101887.25
2022-12-27T00:11:31.059Z,101879.41
2022-12-27T00:16:34.630Z,101868.13
2022-12-27T00:21:38.909Z,101876.91
2022-12-27T00:26:42.131Z,101878.69
2022-12-27T00:31:45.387Z,101889.00
2022-12-27T00:36:49.711Z,101888.09
2022-12-27T00:41:52.672Z,101895.09
2022-12-27T00:46:55.618Z,101887.25
2022-12-27T00:51:59.937Z,101899.41
2022-12-27T00:57:02.914Z,101903.16
2022-12-27T01:02:06.008Z,101903.84
2022-12-27T01:07:10.349Z,101914.94
2022-12-27T01:12:13.265Z,101921.84
2022-12-27T01:17:16.586Z,101922.63
2022-12-27T01:22:20.959Z,101931.31
2022-12-27T01:27:23.919Z,101943.63
2022-12-27T01:32:26.908Z,101931.72
2022-12-27T01:37:31.539Z,101946.31
2022-12-27T01:42:51.881Z,101960.84
2022-12-27T01:47:58.347Z,101956.44
2022-12-27T01:53:08.422Z,101946.19
2022-12-27T01:58:14.878Z,101972.19
2022-12-27T02:03:21.398Z,101971.25
2022-12-27T02:08:37.990Z,101978.16
2022-12-27T02:13:43.221Z,101977.31
2022-12-27T02:18:46.779Z,101975.41
2022-12-27T02:24:13.975Z,101992.69
2022-12-27T02:29:44.926Z,101993.38
2022-12-27T02:34:55.319Z,102006.47
2022-12-27T02:40:19.681Z,102002.09
2022-12-27T02:45:44.544Z,102007.19
2022-12-27T02:51:15.082Z,102019.31
2022-12-27T02:56:43.758Z,102008.78
2022-12-27T03:02:11.732Z,102013.91
2022-12-27T03:07:27.414Z,102012.03
2022-12-27T03:13:01.144Z,102018.97
2022-12-27T03:18:09.717Z,102024.88
2022-12-27T03:23:30.676Z,102018.06
2022-12-27T03:28:51.634Z,102025.16
2022-12-27T03:34:19.444Z,102023.44
2022-12-27T03:39:28.828Z,102041.41
2022-12-27T03:44:31.986Z,102044.69
2022-12-27T03:49:39.261Z,102043.69
2022-12-27T03:54:44.009Z,102041.84
2022-12-27T03:59:47.203Z,102052.09
2022-12-27T04:04:51.679Z,102054.56
2022-12-27T04:10:11.907Z,102048.44
2022-12-27T04:15:32.775Z,102051.75
2022-12-27T04:20:54.387Z,102063.88
2022-12-27T04:26:15.219Z,102061.28
2022-12-27T04:31:36.158Z,102066.44
2022-12-27T04:36:40.737Z,102069.06
2022-12-27T04:42:00.875Z,102065.16
2022-12-27T04:47:21.376Z,102063.53
2022-12-27T04:52:43.438Z,102074.66
2022-12-27T04:57:46.584Z,102074.72
2022-12-27T05:02:49.879Z,102078.19
2022-12-27T05:08:12.238Z,102077.34
2022-12-27T05:13:32.711Z,102081.53
2022-12-27T05:18:35.630Z,102091.84
2022-12-27T05:24:04.919Z,102096.25
2022-12-27T05:29:09.131Z,102098.06
2022-12-27T05:34:12.081Z,102099.81
2022-12-27T05:39:16.462Z,102106.91
2022-12-27T05:44:19.458Z,102117.09
2022-12-27T05:49:22.379Z,102127.19
2022-12-27T05:54:26.798Z,102131.53
2022-12-27T05:59:29.646Z,102124.16
2022-12-27T06:04:32.584Z,102125.88
2022-12-27T06:09:36.944Z,102129.88
2022-12-27T06:14:41.340Z,102139.19
2022-12-27T06:19:44.262Z,102137.19
2022-12-27T06:24:48.656Z,102131.13
2022-12-27T06:29:51.567Z,102144.66
2022-12-27T06:34:54.531Z,102121.59
2022-12-27T06:39:58.867Z,102140.81
2022-12-27T06:45:01.899Z,102168.63
2022-12-27T06:50:05.481Z,102170.44
2022-12-27T06:55:09.996Z,102181.06
2022-12-27T07:00:14.225Z,102177.56
2022-12-27T07:05:17.372Z,102172.50
2022-12-27T07:10:21.824Z,102180.25
2022-12-27T07:15:24.819Z,102170.19
2022-12-27T07:20:27.949Z,102176.00
2022-12-27T07:25:33.404Z,102177.31
2022-12-27T07:30:36.444Z,102184.00
2022-12-27T07:35:44.835Z,102186.59
2022-12-27T07:40:49.453Z,102191.75
2022-12-27T07:45:52.576Z,102189.19
2022-12-27T07:50:56.667Z,102197.84
2022-12-27T07:56:01.035Z,102209.91
2022-12-27T08:01:04.660Z,102214.44
2022-12-27T08:06:08.704Z,102214.50
2022-12-27T08:11:13.245Z,102228.97
2022-12-27T08:16:18.156Z,102225.56
2022-12-27T08:21:21.156Z,102243.75
2022-12-27T08:26:25.473Z,102234.81
2022-12-27T08:31:28.393Z,102246.22
2022-12-27T08:41:55.829Z,102249.81
2022-12-27T08:46:59.560Z,102246.75
2022-12-27T08:52:02.465Z,102236.56
2022-12-27T08:57:07.062Z,102240.88
2022-12-27T09:02:11.088Z,102230.75
2022-12-27T09:07:14.162Z,102234.38
2022-12-27T09:12:19.447Z,102239.19
2022-12-27T09:17:22.360Z,102231.75
2022-12-27T09:22:25.245Z,102244.97
2022-12-27T09:27:29.561Z,102237.28
2022-12-27T09:32:32.511Z,102240.28
2022-12-27T09:37:35.418Z,102234.97
2022-12-27T09:42:53.463Z,102243.44
2022-12-27T09:48:01.843Z,102235.31
2022-12-27T09:53:08.005Z,102254.06
2022-12-27T09:58:24.031Z,102257.63
2022-12-27T10:03:28.240Z,102261.44
2022-12-27T10:08:38.575Z,102278.03
2022-12-27T10:13:47.572Z,102264.91
2022-12-27T10:19:03.528Z,102271.16
2022-12-27T10:24:14.726Z,102279.03
2022-12-27T10:29:22.585Z,102268.09
2022-12-27T10:34:25.520Z,102257.50
2022-12-27T10:39:30.295Z,102265.44
2022-12-27T10:44:35.809Z,102267.63
2022-12-27T10:49:40.050Z,102264.25
2022-12-27T10:54:52.368Z,102267.09
2022-12-27T11:00:19.491Z,102251.47
2022-12-27T11:05:24.305Z,102259.28
2022-12-27T11:10:28.688Z,102265.91
2022-12-27T11:15:34.891Z,102264.91
2022-12-27T11:20:40.357Z,102254.97
2022-12-27T11:25:53.561Z,102265.44
2022-12-27T11:31:00.306Z,102262.16
2022-12-27T11:36:03.277Z,102245.00
2022-12-27T11:41:09.444Z,102240.91
2022-12-27T11:46:21.740Z,102242.44
2022-12-27T11:51:56.039Z,102223.25
2022-12-27T11:57:12.286Z,102234.25
2022-12-27T12:02:36.976Z,102208.16
2022-12-27T12:07:52.238Z,102207.19
2022-12-27T12:13:11.201Z,102204.72
2022-12-27T12:18:28.868Z,102191.09
2022-12-27T12:23:47.207Z,102188.25
2022-12-27T12:29:19.073Z,102169.91
2022-12-27T12:34:39.349Z,102160.22
2022-12-27T12:40:02.481Z,102146.63
2022-12-27T12:45:21.701Z,102133.59
2022-12-27T12:50:37.595Z,102111.09
2022-12-27T12:55:48.653Z,102099.06
2022-12-27T13:01:04.600Z,102080.97
2022-12-27T13:06:18.651Z,102081.06
2022-12-27T13:11:41.247Z,102056.78
2022-12-27T13:16:51.728Z,102057.75
2022-12-27T13:22:03.142Z,102054.50
2022-12-27T13:27:13.236Z,102055.31
2022-12-27T13:32:23.134Z,102037.22
2022-12-27T13:37:35.651Z,102040.72
2022-12-27T13:43:00.109Z,102031.97
2022-12-27T13:48:12.877Z,102030.28
2022-12-27T13:53:41.360Z,102021.72
2022-12-27T13:58:59.374Z,102021.72
2022-12-27T14:04:16.584Z,102023.44
2022-12-27T14:10:01.835Z,102012.25
2022-12-27T14:15:08.802Z,101999.25
2022-12-27T14:20:27.325Z,102001.88
2022-12-27T14:26:04.425Z,101989.78
2022-12-27T14:31:38.057Z,101980.22
2022-12-27T14:37:12.694Z,101971.41
2022-12-27T14:42:32.379Z,101976.53
2022-12-27T14:47:59.777Z,101955.66
2022-12-27T14:53:37.264Z,101965.94
2022-12-27T14:58:50.980Z,101967.50
2022-12-27T15:04:07.460Z,101982.06
2022-12-27T15:09:14.199Z,101985.41
2022-12-27T15:14:29.456Z,101991.38
2022-12-27T15:19:49.980Z,101993.97
2022-12-27T15:25:04.799Z,101982.81
2022-12-27T15:30:22.088Z,101976.72
2022-12-27T15:35:35.187Z,101957.66
2022-12-27T15:40:51.901Z,101962.94
2022-12-27T15:46:05.310Z,101951.78
2022-12-27T15:51:15.456Z,101944.81
2022-12-27T15:56:28.994Z,101934.38
2022-12-27T16:07:04.145Z,101905.81
2022-12-27T16:12:13.143Z,101916.16
2022-12-27T16:17:33.592Z,101908.44
2022-12-27T16:22:40.642Z,101894.63
2022-12-27T16:27:44.051Z,101884.31
2022-12-27T16:32:49.518Z,101873.09
2022-12-27T16:37:55.691Z,101866.22
2022-12-27T16:43:25.935Z,101886.09
2022-12-27T16:48:37.439Z,101836.63
2022-12-27T16:54:13.021Z,101870.50
2022-12-27T16:59:53.710Z,101853.09
2022-12-27T17:05:01.542Z,101851.22
2022-12-27T17:10:49.398Z,101857.25
2022-12-27T17:16:01.148Z,101857.25
2022-12-27T17:21:07.507Z,101859.78
2022-12-27T17:26:24.098Z,101844.28
2022-12-27T17:31:33.203Z,101830.59
2022-12-27T17:36:45.424Z,101812.47
2022-12-27T17:42:11.595Z,101805.56
2022-12-27T17:47:27.011Z,101782.22
2022-12-27T17:52:47.267Z,101784.03
2022-12-27T17:57:56.373Z,101792.69
2022-12-27T18:03:03.776Z,101784.91
2022-12-27T18:08:08.531Z,101767.63
2022-12-27T18:13:17.485Z,101763.22
2022-12-27T18:18:25.056Z,101769.38
2022-12-27T18:23:28.441Z,101756.38
2022-12-27T18:28:33.783Z,101737.38
2022-12-27T18:33:41.918Z,101733.97
2022-12-27T18:38:47.503Z,101733.09
2022-12-27T18:43:53.548Z,101726.25
2022-12-27T18:49:02.154Z,101719.38
2022-12-27T18:54:22.539Z,101722.06
2022-12-27T18:59:29.847Z,101719.44
2022-12-27T19:04:34.827Z,101712.47
2022-12-27T19:09:40.777Z,101695.91
2022-12-27T19:14:45.736Z,101647.28
2022-12-27T19:19:51.514Z,101688.88
2022-12-27T19:24:59.931Z,101662.03
2022-12-27T19:30:03.079Z,101665.50
2022-12-27T19:35:08.589Z,101643.00
2022-12-27T19:40:15.182Z,101645.53
2022-12-27T19:45:21.776Z,101621.31
2022-12-27T19:50:26.138Z,101615.34
2022-12-27T19:55:29.130Z,101602.41
2022-12-27T20:00:32.079Z,101593.78
2022-12-27T20:06:11.350Z,101600.75
2022-12-27T20:11:01.854Z,101593.00
2022-12-27T20:16:05.483Z,101593.84
2022-12-27T20:21:13.211Z,101591.25
2022-12-27T20:26:19.937Z,101595.59
2022-12-27T20:31:24.114Z,101589.56
2022-12-27T20:36:28.582Z,101580.91
2022-12-27T20:41:31.674Z,101576.66
2022-12-27T20:46:34.769Z,101555.91
2022-12-27T20:51:41.882Z,101561.09
2022-12-27T20:56:44.951Z,101559.38
2022-12-27T21:01:53.041Z,101553.31
2022-12-27T21:07:01.060Z,101552.44
2022-12-27T21:12:07.206Z,101529.88
2022-12-27T21:17:10.224Z,101538.53
2022-12-27T21:22:14.566Z,101517.69
2022-12-27T21:27:17.548Z,101514.22
2022-12-27T21:32:20.543Z,101509.91
2022-12-27T21:37:25.015Z,101511.66
2022-12-27T21:42:27.979Z,101505.59
2022-12-27T21:47:31.686Z,101498.69
2022-12-27T21:52:36.044Z,101497.81
2022-12-27T21:57:39.020Z,101489.19
2022-12-27T22:02:42.080Z,101483.94
2022-12-27T22:07:46.523Z,101471.81
2022-12-27T22:12:49.493Z,101452.75
2022-12-27T22:17:52.427Z,101443.22
2022-12-27T22:22:56.786Z,101421.59
2022-12-27T22:27:59.763Z,101406.91
2022-12-27T22:33:04.906Z,101385.28
2022-12-27T22:38:12.209Z,101382.72
2022-12-27T22:43:15.350Z,101368.88
2022-12-27T22:48:18.305Z,101357.69
2022-12-27T22:53:22.654Z,101349.91
2022-12-27T22:58:26.429Z,101329.16
2022-12-27T23:03:29.401Z,101313.63
2022-12-27T23:08:33.747Z,101295.47
2022-12-27T23:13:36.604Z,101277.31
2022-12-27T23:18:40.535Z,101260.84
2022-12-27T23:23:45.078Z,101264.34
2022-12-27T23:28:48.660Z,101265.22
2022-12-27T23:33:52.812Z,101240.19
2022-12-27T23:38:57.172Z,101211.69
2022-12-27T23:44:03.570Z,101208.22
2022-12-27T23:49:06.590Z,101190.94
2022-12-27T23:54:10.867Z,101168.50
2022-12-27T23:59:13.868Z,101168.53
